sensor_id;sensor_type;location;lat;lon;timestamp;P1;durP1;ratioP1;P2;durP2;ratioP2
64197;SDS011;50512;53.666;9.700;2022-07-23T00:00:23;5.65;;;2.03;;
64197;SDS011;50512;53.666;9.700;2022-07-23T00:02:49;7.88;;;2.25;;
64197;SDS011;50512;53.666;9.700;2022-07-23T00:05:14;7.72;;;2.50;;
64197;SDS011;50512;53.666;9.700;2022-07-23T00:07:41;8.65;;;2.17;;
64197;SDS011;50512;53.666;9.700;2022-07-23T00:10:07;8.30;;;2.72;;
64197;SDS011;50512;53.666;9.700;2022-07-23T00:12:33;4.80;;;1.83;;
64197;SDS011;50512;53.666;9.700;2022-07-23T00:14:58;4.57;;;1.92;;
64197;SDS011;50512;53.666;9.700;2022-07-23T00:17:24;7.55;;;2.70;;
64197;SDS011;50512;53.666;9.700;2022-07-23T00:19:50;5.30;;;2.15;;
64197;SDS011;50512;53.666;9.700;2022-07-23T00:22:15;5.22;;;2.70;;
64197;SDS011;50512;53.666;9.700;2022-07-23T00:24:42;5.28;;;1.83;;
64197;SDS011;50512;53.666;9.700;2022-07-23T00:27:07;5.35;;;2.05;;
64197;SDS011;50512;53.666;9.700;2022-07-23T00:29:33;5.45;;;2.03;;
64197;SDS011;50512;53.666;9.700;2022-07-23T00:31:58;3.63;;;1.73;;
64197;SDS011;50512;53.666;9.700;2022-07-23T00:34:24;4.40;;;2.00;;
64197;SDS011;50512;53.666;9.700;2022-07-23T00:36:49;3.13;;;1.80;;
64197;SDS011;50512;53.666;9.700;2022-07-23T00:39:15;8.98;;;2.25;;
64197;SDS011;50512;53.666;9.700;2022-07-23T00:41:41;6.47;;;1.77;;
64197;SDS011;50512;53.666;9.700;2022-07-23T00:44:14;8.52;;;2.63;;
64197;SDS011;50512;53.666;9.700;2022-07-23T00:46:44;6.22;;;1.88;;
64197;SDS011;50512;53.666;9.700;2022-07-23T00:49:10;3.05;;;1.92;;
64197;SDS011;50512;53.666;9.700;2022-07-23T00:51:36;6.40;;;2.20;;
64197;SDS011;50512;53.666;9.700;2022-07-23T00:54:01;3.88;;;1.92;;
64197;SDS011;50512;53.666;9.700;2022-07-23T00:56:27;3.67;;;1.77;;
64197;SDS011;50512;53.666;9.700;2022-07-23T00:58:54;7.90;;;2.67;;
64197;SDS011;50512;53.666;9.700;2022-07-23T01:01:19;3.63;;;1.90;;
64197;SDS011;50512;53.666;9.700;2022-07-23T01:03:44;5.55;;;2.03;;
64197;SDS011;50512;53.666;9.700;2022-07-23T01:06:10;5.28;;;2.30;;
64197;SDS011;50512;53.666;9.700;2022-07-23T01:08:36;8.23;;;2.50;;
64197;SDS011;50512;53.666;9.700;2022-07-23T01:11:01;7.18;;;2.58;;
64197;SDS011;50512;53.666;9.700;2022-07-23T01:13:27;12.85;;;2.25;;
64197;SDS011;50512;53.666;9.700;2022-07-23T01:15:54;4.70;;;2.33;;
64197;SDS011;50512;53.666;9.700;2022-07-23T01:18:19;3.65;;;2.03;;
64197;SDS011;50512;53.666;9.700;2022-07-23T01:20:45;3.72;;;2.03;;
64197;SDS011;50512;53.666;9.700;2022-07-23T01:23:11;4.43;;;1.80;;
64197;SDS011;50512;53.666;9.700;2022-07-23T01:25:37;4.18;;;2.10;;
64197;SDS011;50512;53.666;9.700;2022-07-23T01:28:03;4.30;;;1.92;;
64197;SDS011;50512;53.666;9.700;2022-07-23T01:30:28;6.55;;;2.20;;
64197;SDS011;50512;53.666;9.700;2022-07-23T01:32:54;4.55;;;1.73;;
64197;SDS011;50512;53.666;9.700;2022-07-23T01:35:19;4.45;;;2.10;;
64197;SDS011;50512;53.666;9.700;2022-07-23T01:37:45;5.38;;;2.30;;
64197;SDS011;50512;53.666;9.700;2022-07-23T01:40:11;7.93;;;1.95;;
64197;SDS011;50512;53.666;9.700;2022-07-23T01:42:37;8.15;;;2.28;;
64197;SDS011;50512;53.666;9.700;2022-07-23T01:45:03;3.00;;;1.65;;
64197;SDS011;50512;53.666;9.700;2022-07-23T01:47:29;5.93;;;1.92;;
64197;SDS011;50512;53.666;9.700;2022-07-23T01:49:54;5.82;;;2.50;;
64197;SDS011;50512;53.666;9.700;2022-07-23T01:52:20;6.47;;;2.55;;
64197;SDS011;50512;53.666;9.700;2022-07-23T01:54:45;3.08;;;1.85;;
64197;SDS011;50512;53.666;9.700;2022-07-23T01:57:12;5.78;;;1.98;;
64197;SDS011;50512;53.666;9.700;2022-07-23T01:59:38;8.48;;;2.50;;
64197;SDS011;50512;53.666;9.700;2022-07-23T02:02:03;5.45;;;1.80;;
64197;SDS011;50512;53.666;9.700;2022-07-23T02:04:29;5.75;;;1.98;;
64197;SDS011;50512;53.666;9.700;2022-07-23T02:06:54;7.20;;;1.90;;
64197;SDS011;50512;53.666;9.700;2022-07-23T02:09:19;5.72;;;2.33;;
64197;SDS011;50512;53.666;9.700;2022-07-23T02:11:45;3.90;;;1.80;;
64197;SDS011;50512;53.666;9.700;2022-07-23T02:14:12;6.20;;;1.63;;
64197;SDS011;50512;53.666;9.700;2022-07-23T02:16:38;5.47;;;2.58;;
64197;SDS011;50512;53.666;9.700;2022-07-23T02:19:04;4.53;;;1.80;;
64197;SDS011;50512;53.666;9.700;2022-07-23T02:21:29;6.22;;;2.10;;
64197;SDS011;50512;53.666;9.700;2022-07-23T02:23:55;5.65;;;2.20;;
64197;SDS011;50512;53.666;9.700;2022-07-23T02:26:21;5.72;;;2.28;;
64197;SDS011;50512;53.666;9.700;2022-07-23T02:28:46;4.00;;;2.30;;
64197;SDS011;50512;53.666;9.700;2022-07-23T02:31:13;3.55;;;1.80;;
64197;SDS011;50512;53.666;9.700;2022-07-23T02:33:38;4.13;;;1.90;;
64197;SDS011;50512;53.666;9.700;2022-07-23T02:36:04;3.40;;;2.00;;
64197;SDS011;50512;53.666;9.700;2022-07-23T02:38:30;4.70;;;1.70;;
64197;SDS011;50512;53.666;9.700;2022-07-23T02:40:55;6.40;;;1.90;;
64197;SDS011;50512;53.666;9.700;2022-07-23T02:43:21;8.15;;;3.25;;
64197;SDS011;50512;53.666;9.700;2022-07-23T02:45:46;9.20;;;2.15;;
64197;SDS011;50512;53.666;9.700;2022-07-23T02:48:13;6.03;;;2.00;;
64197;SDS011;50512;53.666;9.700;2022-07-23T02:50:38;3.33;;;1.63;;
64197;SDS011;50512;53.666;9.700;2022-07-23T02:53:04;5.30;;;2.03;;
64197;SDS011;50512;53.666;9.700;2022-07-23T02:55:29;6.30;;;2.22;;
64197;SDS011;50512;53.666;9.700;2022-07-23T02:57:55;7.40;;;2.30;;
64197;SDS011;50512;53.666;9.700;2022-07-23T03:00:20;6.10;;;2.60;;
64197;SDS011;50512;53.666;9.700;2022-07-23T03:02:46;8.88;;;2.42;;
64197;SDS011;50512;53.666;9.700;2022-07-23T03:05:12;6.75;;;2.42;;
64197;SDS011;50512;53.666;9.700;2022-07-23T03:07:38;3.33;;;1.75;;
64197;SDS011;50512;53.666;9.700;2022-07-23T03:10:03;9.18;;;2.65;;
64197;SDS011;50512;53.666;9.700;2022-07-23T03:12:29;3.33;;;1.95;;
64197;SDS011;50512;53.666;9.700;2022-07-23T03:14:55;9.77;;;3.88;;
64197;SDS011;50512;53.666;9.700;2022-07-23T03:17:20;8.10;;;2.85;;
64197;SDS011;50512;53.666;9.700;2022-07-23T03:19:45;5.75;;;2.38;;
64197;SDS011;50512;53.666;9.700;2022-07-23T03:22:12;6.57;;;2.30;;
64197;SDS011;50512;53.666;9.700;2022-07-23T03:24:38;7.25;;;2.53;;
64197;SDS011;50512;53.666;9.700;2022-07-23T03:27:03;7.47;;;2.58;;
64197;SDS011;50512;53.666;9.700;2022-07-23T03:29:29;6.32;;;2.08;;
64197;SDS011;50512;53.666;9.700;2022-07-23T03:31:54;5.47;;;2.10;;
64197;SDS011;50512;53.666;9.700;2022-07-23T03:34:20;3.63;;;1.83;;
64197;SDS011;50512;53.666;9.700;2022-07-23T03:36:45;5.53;;;2.13;;
64197;SDS011;50512;53.666;9.700;2022-07-23T03:39:12;6.28;;;2.22;;
64197;SDS011;50512;53.666;9.700;2022-07-23T03:41:37;5.38;;;2.55;;
64197;SDS011;50512;53.666;9.700;2022-07-23T03:44:03;8.35;;;3.17;;
64197;SDS011;50512;53.666;9.700;2022-07-23T03:46:29;6.80;;;2.95;;
64197;SDS011;50512;53.666;9.700;2022-07-23T03:48:54;5.82;;;2.40;;
64197;SDS011;50512;53.666;9.700;2022-07-23T03:51:19;7.18;;;2.47;;
64197;SDS011;50512;53.666;9.700;2022-07-23T03:53:45;5.00;;;2.55;;
64197;SDS011;50512;53.666;9.700;2022-07-23T03:56:12;6.45;;;2.58;;
64197;SDS011;50512;53.666;9.700;2022-07-23T03:58:37;12.10;;;3.05;;
64197;SDS011;50512;53.666;9.700;2022-07-23T04:01:03;4.28;;;2.17;;
64197;SDS011;50512;53.666;9.700;2022-07-23T04:03:28;5.28;;;2.50;;
64197;SDS011;50512;53.666;9.700;2022-07-23T04:05:53;9.57;;;2.35;;
64197;SDS011;50512;53.666;9.700;2022-07-23T04:08:19;5.63;;;2.30;;
64197;SDS011;50512;53.666;9.700;2022-07-23T04:10:44;3.65;;;1.90;;
64197;SDS011;50512;53.666;9.700;2022-07-23T04:13:11;5.03;;;2.28;;
64197;SDS011;50512;53.666;9.700;2022-07-23T04:15:37;7.47;;;2.50;;
64197;SDS011;50512;53.666;9.700;2022-07-23T04:18:02;9.70;;;1.80;;
64197;SDS011;50512;53.666;9.700;2022-07-23T04:20:28;5.95;;;2.08;;
64197;SDS011;50512;53.666;9.700;2022-07-23T04:22:53;5.75;;;1.70;;
64197;SDS011;50512;53.666;9.700;2022-07-23T04:25:19;2.65;;;1.50;;
64197;SDS011;50512;53.666;9.700;2022-07-23T04:27:44;4.93;;;2.10;;
64197;SDS011;50512;53.666;9.700;2022-07-23T04:30:11;1.98;;;1.38;;
64197;SDS011;50512;53.666;9.700;2022-07-23T04:32:36;6.18;;;1.65;;
64197;SDS011;50512;53.666;9.700;2022-07-23T04:35:02;1.75;;;1.42;;
64197;SDS011;50512;53.666;9.700;2022-07-23T04:37:28;4.72;;;1.40;;
64197;SDS011;50512;53.666;9.700;2022-07-23T04:39:53;3.03;;;1.30;;
64197;SDS011;50512;53.666;9.700;2022-07-23T04:42:19;4.60;;;1.38;;
64197;SDS011;50512;53.666;9.700;2022-07-23T04:44:44;3.78;;;1.20;;
64197;SDS011;50512;53.666;9.700;2022-07-23T04:47:11;1.65;;;1.10;;
64197;SDS011;50512;53.666;9.700;2022-07-23T04:49:36;3.00;;;1.60;;
64197;SDS011;50512;53.666;9.700;2022-07-23T04:52:02;2.40;;;1.20;;
64197;SDS011;50512;53.666;9.700;2022-07-23T04:54:28;2.28;;;1.20;;
64197;SDS011;50512;53.666;9.700;2022-07-23T04:56:53;4.20;;;1.00;;
64197;SDS011;50512;53.666;9.700;2022-07-23T04:59:19;4.53;;;1.20;;
64197;SDS011;50512;53.666;9.700;2022-07-23T05:01:44;1.73;;;1.10;;
64197;SDS011;50512;53.666;9.700;2022-07-23T05:04:11;6.55;;;1.92;;
64197;SDS011;50512;53.666;9.700;2022-07-23T05:06:36;2.53;;;1.30;;
64197;SDS011;50512;53.666;9.700;2022-07-23T05:09:02;4.93;;;1.40;;
64197;SDS011;50512;53.666;9.700;2022-07-23T05:11:27;2.78;;;1.50;;
64197;SDS011;50512;53.666;9.700;2022-07-23T05:13:53;3.47;;;1.20;;
64197;SDS011;50512;53.666;9.700;2022-07-23T05:16:18;5.35;;;1.50;;
64197;SDS011;50512;53.666;9.700;2022-07-23T05:18:44;7.35;;;1.80;;
64197;SDS011;50512;53.666;9.700;2022-07-23T05:21:11;3.70;;;2.20;;
64197;SDS011;50512;53.666;9.700;2022-07-23T05:23:37;2.55;;;1.40;;
64197;SDS011;50512;53.666;9.700;2022-07-23T05:26:02;3.08;;;1.10;;
64197;SDS011;50512;53.666;9.700;2022-07-23T05:28:28;5.00;;;1.40;;
64197;SDS011;50512;53.666;9.700;2022-07-23T05:30:53;5.55;;;1.55;;
64197;SDS011;50512;53.666;9.700;2022-07-23T05:33:19;4.72;;;1.67;;
64197;SDS011;50512;53.666;9.700;2022-07-23T05:35:45;3.10;;;1.40;;
64197;SDS011;50512;53.666;9.700;2022-07-23T05:38:11;2.65;;;1.60;;
64197;SDS011;50512;53.666;9.700;2022-07-23T05:40:37;2.50;;;1.50;;
64197;SDS011;50512;53.666;9.700;2022-07-23T05:43:02;3.83;;;1.70;;
64197;SDS011;50512;53.666;9.700;2022-07-23T05:45:28;4.00;;;1.58;;
64197;SDS011;50512;53.666;9.700;2022-07-23T05:47:53;4.28;;;1.70;;
64197;SDS011;50512;53.666;9.700;2022-07-23T05:50:19;3.35;;;1.67;;
64197;SDS011;50512;53.666;9.700;2022-07-23T05:52:44;4.45;;;1.67;;
64197;SDS011;50512;53.666;9.700;2022-07-23T05:55:11;4.00;;;2.03;;
64197;SDS011;50512;53.666;9.700;2022-07-23T05:57:37;4.03;;;1.73;;
64197;SDS011;50512;53.666;9.700;2022-07-23T06:00:03;5.53;;;1.80;;
64197;SDS011;50512;53.666;9.700;2022-07-23T06:02:30;5.95;;;2.00;;
64197;SDS011;50512;53.666;9.700;2022-07-23T06:04:55;5.07;;;1.88;;
64197;SDS011;50512;53.666;9.700;2022-07-23T06:07:21;4.50;;;2.00;;
64197;SDS011;50512;53.666;9.700;2022-07-23T06:09:46;4.35;;;2.10;;
64197;SDS011;50512;53.666;9.700;2022-07-23T06:12:13;7.03;;;2.53;;
64197;SDS011;50512;53.666;9.700;2022-07-23T06:14:39;8.30;;;2.30;;
64197;SDS011;50512;53.666;9.700;2022-07-23T06:17:04;6.22;;;2.70;;
64197;SDS011;50512;53.666;9.700;2022-07-23T06:19:29;7.25;;;2.05;;
64197;SDS011;50512;53.666;9.700;2022-07-23T06:21:55;7.97;;;2.40;;
64197;SDS011;50512;53.666;9.700;2022-07-23T06:24:20;4.38;;;2.00;;
64197;SDS011;50512;53.666;9.700;2022-07-23T06:26:46;5.90;;;1.77;;
64197;SDS011;50512;53.666;9.700;2022-07-23T06:29:13;8.60;;;2.15;;
64197;SDS011;50512;53.666;9.700;2022-07-23T06:31:38;5.07;;;1.92;;
64197;SDS011;50512;53.666;9.700;2022-07-23T06:34:03;5.40;;;1.75;;
64197;SDS011;50512;53.666;9.700;2022-07-23T06:36:29;6.28;;;1.80;;
64197;SDS011;50512;53.666;9.700;2022-07-23T06:38:54;6.22;;;1.75;;
64197;SDS011;50512;53.666;9.700;2022-07-23T06:41:20;6.40;;;2.00;;
64197;SDS011;50512;53.666;9.700;2022-07-23T06:43:46;3.72;;;1.50;;
64197;SDS011;50512;53.666;9.700;2022-07-23T06:46:12;4.72;;;1.73;;
64197;SDS011;50512;53.666;9.700;2022-07-23T06:48:38;3.55;;;1.55;;
64197;SDS011;50512;53.666;9.700;2022-07-23T06:51:03;5.03;;;1.48;;
64197;SDS011;50512;53.666;9.700;2022-07-23T06:53:29;2.70;;;1.38;;
64197;SDS011;50512;53.666;9.700;2022-07-23T06:55:55;4.28;;;1.33;;
64197;SDS011;50512;53.666;9.700;2022-07-23T06:58:20;4.38;;;1.55;;
64197;SDS011;50512;53.666;9.700;2022-07-23T07:00:45;2.20;;;1.25;;
64197;SDS011;50512;53.666;9.700;2022-07-23T07:03:12;7.72;;;1.90;;
64197;SDS011;50512;53.666;9.700;2022-07-23T07:05:38;5.35;;;1.38;;
64197;SDS011;50512;53.666;9.700;2022-07-23T07:08:03;2.28;;;1.27;;
64197;SDS011;50512;53.666;9.700;2022-07-23T07:10:29;1.77;;;1.10;;
64197;SDS011;50512;53.666;9.700;2022-07-23T07:12:54;1.80;;;1.55;;
64197;SDS011;50512;53.666;9.700;2022-07-23T07:15:20;3.55;;;1.08;;
64197;SDS011;50512;53.666;9.700;2022-07-23T07:17:45;2.65;;;1.25;;
64197;SDS011;50512;53.666;9.700;2022-07-23T07:20:12;2.13;;;1.10;;
64197;SDS011;50512;53.666;9.700;2022-07-23T07:22:38;2.05;;;0.90;;
64197;SDS011;50512;53.666;9.700;2022-07-23T07:25:03;2.92;;;1.33;;
64197;SDS011;50512;53.666;9.700;2022-07-23T07:27:30;4.85;;;1.30;;
64197;SDS011;50512;53.666;9.700;2022-07-23T07:29:55;2.35;;;1.17;;
64197;SDS011;50512;53.666;9.700;2022-07-23T07:32:20;5.43;;;1.48;;
64197;SDS011;50512;53.666;9.700;2022-07-23T07:34:46;6.30;;;2.10;;
64197;SDS011;50512;53.666;9.700;2022-07-23T07:37:13;2.95;;;1.40;;
64197;SDS011;50512;53.666;9.700;2022-07-23T07:39:38;3.55;;;1.48;;
64197;SDS011;50512;53.666;9.700;2022-07-23T07:42:04;2.33;;;1.40;;
64197;SDS011;50512;53.666;9.700;2022-07-23T07:44:29;14.45;;;2.00;;
64197;SDS011;50512;53.666;9.700;2022-07-23T07:46:55;4.65;;;1.40;;
64197;SDS011;50512;53.666;9.700;2022-07-23T07:49:20;3.72;;;1.40;;
64197;SDS011;50512;53.666;9.700;2022-07-23T07:51:46;1.88;;;1.23;;
64197;SDS011;50512;53.666;9.700;2022-07-23T07:54:13;2.83;;;1.17;;
64197;SDS011;50512;53.666;9.700;2022-07-23T07:56:38;5.82;;;1.50;;
64197;SDS011;50512;53.666;9.700;2022-07-23T07:59:04;1.63;;;1.25;;
64197;SDS011;50512;53.666;9.700;2022-07-23T08:01:30;2.28;;;1.42;;
64197;SDS011;50512;53.666;9.700;2022-07-23T08:03:56;2.25;;;1.20;;
64197;SDS011;50512;53.666;9.700;2022-07-23T08:06:21;2.88;;;1.30;;
64197;SDS011;50512;53.666;9.700;2022-07-23T08:08:47;2.45;;;0.88;;
64197;SDS011;50512;53.666;9.700;2022-07-23T08:11:13;4.03;;;0.90;;
64197;SDS011;50512;53.666;9.700;2022-07-23T08:13:39;4.38;;;1.52;;
64197;SDS011;50512;53.666;9.700;2022-07-23T08:16:04;4.38;;;1.42;;
64197;SDS011;50512;53.666;9.700;2022-07-23T08:18:30;2.70;;;1.20;;
64197;SDS011;50512;53.666;9.700;2022-07-23T08:20:55;2.40;;;1.00;;
64197;SDS011;50512;53.666;9.700;2022-07-23T08:23:21;1.17;;;0.98;;
64197;SDS011;50512;53.666;9.700;2022-07-23T08:25:46;4.32;;;1.13;;
64197;SDS011;50512;53.666;9.700;2022-07-23T08:28:13;1.63;;;1.08;;
64197;SDS011;50512;53.666;9.700;2022-07-23T08:30:40;2.95;;;1.00;;
64197;SDS011;50512;53.666;9.700;2022-07-23T08:33:07;1.75;;;1.30;;
64197;SDS011;50512;53.666;9.700;2022-07-23T08:35:34;3.70;;;1.23;;
64197;SDS011;50512;53.666;9.700;2022-07-23T08:38:02;2.00;;;1.10;;
64197;SDS011;50512;53.666;9.700;2022-07-23T08:40:29;2.30;;;1.13;;
64197;SDS011;50512;53.666;9.700;2022-07-23T08:42:56;1.27;;;1.17;;
64197;SDS011;50512;53.666;9.700;2022-07-23T08:45:24;1.35;;;1.20;;
64197;SDS011;50512;53.666;9.700;2022-07-23T08:47:52;4.07;;;1.40;;
64197;SDS011;50512;53.666;9.700;2022-07-23T08:50:18;5.00;;;1.40;;
64197;SDS011;50512;53.666;9.700;2022-07-23T08:52:44;3.00;;;1.10;;
64197;SDS011;50512;53.666;9.700;2022-07-23T08:55:10;6.07;;;1.23;;
64197;SDS011;50512;53.666;9.700;2022-07-23T08:57:36;3.90;;;1.20;;
64197;SDS011;50512;53.666;9.700;2022-07-23T09:00:02;4.93;;;1.48;;
64197;SDS011;50512;53.666;9.700;2022-07-23T09:02:30;4.28;;;1.50;;
64197;SDS011;50512;53.666;9.700;2022-07-23T09:04:56;2.20;;;1.17;;
64197;SDS011;50512;53.666;9.700;2022-07-23T09:07:21;3.88;;;1.50;;
64197;SDS011;50512;53.666;9.700;2022-07-23T09:09:47;4.00;;;1.40;;
64197;SDS011;50512;53.666;9.700;2022-07-23T09:12:29;4.38;;;1.50;;
64197;SDS011;50512;53.666;9.700;2022-07-23T09:14:55;2.90;;;1.38;;
64197;SDS011;50512;53.666;9.700;2022-07-23T09:17:28;2.85;;;1.27;;
64197;SDS011;50512;53.666;9.700;2022-07-23T09:20:07;4.43;;;1.40;;
64197;SDS011;50512;53.666;9.700;2022-07-23T09:22:34;2.72;;;1.23;;
64197;SDS011;50512;53.666;9.700;2022-07-23T09:25:03;3.10;;;1.40;;
64197;SDS011;50512;53.666;9.700;2022-07-23T09:27:44;2.30;;;1.10;;
64197;SDS011;50512;53.666;9.700;2022-07-23T09:30:12;4.80;;;1.00;;
64197;SDS011;50512;53.666;9.700;2022-07-23T09:32:40;5.28;;;1.17;;
64197;SDS011;50512;53.666;9.700;2022-07-23T09:35:05;1.23;;;1.00;;
64197;SDS011;50512;53.666;9.700;2022-07-23T09:37:31;2.20;;;0.90;;
64197;SDS011;50512;53.666;9.700;2022-07-23T09:40:03;1.63;;;1.13;;
64197;SDS011;50512;53.666;9.700;2022-07-23T09:42:30;5.80;;;1.17;;
64197;SDS011;50512;53.666;9.700;2022-07-23T09:44:56;3.42;;;1.30;;
64197;SDS011;50512;53.666;9.700;2022-07-23T09:47:23;4.45;;;1.50;;
64197;SDS011;50512;53.666;9.700;2022-07-23T09:50:02;4.40;;;1.65;;
64197;SDS011;50512;53.666;9.700;2022-07-23T09:52:29;2.58;;;1.42;;
64197;SDS011;50512;53.666;9.700;2022-07-23T09:54:59;3.28;;;1.70;;
64197;SDS011;50512;53.666;9.700;2022-07-23T09:57:26;3.13;;;1.27;;
64197;SDS011;50512;53.666;9.700;2022-07-23T09:59:52;3.25;;;1.10;;
64197;SDS011;50512;53.666;9.700;2022-07-23T10:02:18;3.25;;;1.17;;
64197;SDS011;50512;53.666;9.700;2022-07-23T10:04:44;2.90;;;1.88;;
64197;SDS011;50512;53.666;9.700;2022-07-23T10:07:12;6.15;;;1.45;;
64197;SDS011;50512;53.666;9.700;2022-07-23T10:09:42;5.03;;;1.40;;
64197;SDS011;50512;53.666;9.700;2022-07-23T10:12:11;2.47;;;1.10;;
64197;SDS011;50512;53.666;9.700;2022-07-23T10:14:38;1.35;;;0.90;;
64197;SDS011;50512;53.666;9.700;2022-07-23T10:17:04;1.42;;;0.93;;
64197;SDS011;50512;53.666;9.700;2022-07-23T10:19:30;4.57;;;1.05;;
64197;SDS011;50512;53.666;9.700;2022-07-23T10:21:57;7.57;;;0.93;;
64197;SDS011;50512;53.666;9.700;2022-07-23T10:24:43;3.15;;;1.10;;
64197;SDS011;50512;53.666;9.700;2022-07-23T10:27:20;3.28;;;1.23;;
64197;SDS011;50512;53.666;9.700;2022-07-23T10:30:10;2.53;;;0.90;;
64197;SDS011;50512;53.666;9.700;2022-07-23T10:32:44;5.63;;;1.20;;
64197;SDS011;50512;53.666;9.700;2022-07-23T10:35:17;2.83;;;0.90;;
64197;SDS011;50512;53.666;9.700;2022-07-23T10:37:49;4.38;;;1.00;;
64197;SDS011;50512;53.666;9.700;2022-07-23T10:40:18;1.35;;;0.95;;
64197;SDS011;50512;53.666;9.700;2022-07-23T10:42:45;2.70;;;0.90;;
64197;SDS011;50512;53.666;9.700;2022-07-23T10:45:24;2.72;;;0.82;;
64197;SDS011;50512;53.666;9.700;2022-07-23T10:47:51;4.03;;;0.90;;
64197;SDS011;50512;53.666;9.700;2022-07-23T10:50:20;2.35;;;0.90;;
64197;SDS011;50512;53.666;9.700;2022-07-23T10:55:42;2.75;;;1.17;;
64197;SDS011;50512;53.666;9.700;2022-07-23T10:58:09;4.25;;;1.30;;
64197;SDS011;50512;53.666;9.700;2022-07-23T11:00:35;8.27;;;1.83;;
64197;SDS011;50512;53.666;9.700;2022-07-23T11:03:03;1.63;;;1.10;;
64197;SDS011;50512;53.666;9.700;2022-07-23T11:05:39;1.88;;;1.20;;
64197;SDS011;50512;53.666;9.700;2022-07-23T11:10:52;3.33;;;1.27;;
64197;SDS011;50512;53.666;9.700;2022-07-23T11:13:26;2.08;;;1.10;;
64197;SDS011;50512;53.666;9.700;2022-07-23T11:16:06;2.45;;;1.30;;
64197;SDS011;50512;53.666;9.700;2022-07-23T11:21:45;4.03;;;1.17;;
64197;SDS011;50512;53.666;9.700;2022-07-23T11:24:17;5.43;;;1.30;;
64197;SDS011;50512;53.666;9.700;2022-07-23T11:26:46;7.65;;;1.60;;
64197;SDS011;50512;53.666;9.700;2022-07-23T11:32:18;5.18;;;1.60;;
64197;SDS011;50512;53.666;9.700;2022-07-23T11:34:56;6.75;;;1.50;;
64197;SDS011;50512;53.666;9.700;2022-07-23T11:37:32;5.50;;;1.77;;
64197;SDS011;50512;53.666;9.700;2022-07-23T11:40:00;4.43;;;1.40;;
64197;SDS011;50512;53.666;9.700;2022-07-23T11:42:27;6.90;;;2.10;;
64197;SDS011;50512;53.666;9.700;2022-07-23T11:44:53;6.45;;;1.73;;
64197;SDS011;50512;53.666;9.700;2022-07-23T11:47:21;5.47;;;1.58;;
64197;SDS011;50512;53.666;9.700;2022-07-23T11:49:51;3.13;;;1.40;;
64197;SDS011;50512;53.666;9.700;2022-07-23T11:52:18;2.38;;;1.30;;
64197;SDS011;50512;53.666;9.700;2022-07-23T11:54:46;3.08;;;1.48;;
64197;SDS011;50512;53.666;9.700;2022-07-23T11:57:13;3.25;;;1.38;;
64197;SDS011;50512;53.666;9.700;2022-07-23T11:59:40;5.03;;;1.35;;
64197;SDS011;50512;53.666;9.700;2022-07-23T12:02:06;4.45;;;1.67;;
64197;SDS011;50512;53.666;9.700;2022-07-23T12:04:41;5.63;;;1.38;;
64197;SDS011;50512;53.666;9.700;2022-07-23T12:07:22;4.38;;;1.50;;
64197;SDS011;50512;53.666;9.700;2022-07-23T12:09:49;2.90;;;1.52;;
64197;SDS011;50512;53.666;9.700;2022-07-23T12:12:14;6.63;;;1.50;;
64197;SDS011;50512;53.666;9.700;2022-07-23T12:14:48;4.70;;;1.73;;
64197;SDS011;50512;53.666;9.700;2022-07-23T12:17:14;5.28;;;1.40;;
64197;SDS011;50512;53.666;9.700;2022-07-23T12:19:39;1.10;;;0.90;;
64197;SDS011;50512;53.666;9.700;2022-07-23T12:22:05;6.72;;;1.58;;
64197;SDS011;50512;53.666;9.700;2022-07-23T12:24:31;2.60;;;1.00;;
64197;SDS011;50512;53.666;9.700;2022-07-23T12:29:44;3.35;;;1.45;;
64197;SDS011;50512;53.666;9.700;2022-07-23T12:32:18;3.38;;;1.23;;
64197;SDS011;50512;53.666;9.700;2022-07-23T12:37:24;1.83;;;1.10;;
64197;SDS011;50512;53.666;9.700;2022-07-23T12:39:51;2.97;;;1.15;;
64197;SDS011;50512;53.666;9.700;2022-07-23T12:42:16;2.25;;;1.15;;
64197;SDS011;50512;53.666;9.700;2022-07-23T12:44:47;5.38;;;1.42;;
64197;SDS011;50512;53.666;9.700;2022-07-23T12:50:34;3.17;;;1.20;;
64197;SDS011;50512;53.666;9.700;2022-07-23T12:53:04;1.45;;;1.02;;
64197;SDS011;50512;53.666;9.700;2022-07-23T12:55:31;3.13;;;1.02;;
64197;SDS011;50512;53.666;9.700;2022-07-23T12:58:02;3.28;;;0.95;;
64197;SDS011;50512;53.666;9.700;2022-07-23T13:00:29;4.00;;;1.55;;
64197;SDS011;50512;53.666;9.700;2022-07-23T13:02:54;3.60;;;1.50;;
64197;SDS011;50512;53.666;9.700;2022-07-23T13:05:20;3.83;;;1.10;;
64197;SDS011;50512;53.666;9.700;2022-07-23T13:07:46;9.85;;;1.80;;
64197;SDS011;50512;53.666;9.700;2022-07-23T13:10:12;4.82;;;1.38;;
64197;SDS011;50512;53.666;9.700;2022-07-23T13:12:38;4.47;;;1.30;;
64197;SDS011;50512;53.666;9.700;2022-07-23T13:15:03;3.70;;;1.52;;
64197;SDS011;50512;53.666;9.700;2022-07-23T13:17:29;6.78;;;1.50;;
64197;SDS011;50512;53.666;9.700;2022-07-23T13:19:55;3.63;;;1.67;;
64197;SDS011;50512;53.666;9.700;2022-07-23T13:22:20;3.72;;;1.48;;
64197;SDS011;50512;53.666;9.700;2022-07-23T13:24:47;5.88;;;1.63;;
64197;SDS011;50512;53.666;9.700;2022-07-23T13:27:12;5.45;;;1.55;;
64197;SDS011;50512;53.666;9.700;2022-07-23T13:29:38;4.35;;;1.33;;
64197;SDS011;50512;53.666;9.700;2022-07-23T13:32:04;5.75;;;1.50;;
64197;SDS011;50512;53.666;9.700;2022-07-23T13:34:29;5.68;;;1.40;;
64197;SDS011;50512;53.666;9.700;2022-07-23T13:36:55;4.85;;;1.60;;
64197;SDS011;50512;53.666;9.700;2022-07-23T13:39:20;7.47;;;2.10;;
64197;SDS011;50512;53.666;9.700;2022-07-23T13:41:47;4.90;;;1.50;;
64197;SDS011;50512;53.666;9.700;2022-07-23T13:44:13;7.05;;;1.63;;
64197;SDS011;50512;53.666;9.700;2022-07-23T13:46:38;3.00;;;1.27;;
64197;SDS011;50512;53.666;9.700;2022-07-23T13:49:04;3.53;;;1.20;;
64197;SDS011;50512;53.666;9.700;2022-07-23T13:51:29;4.05;;;1.30;;
64197;SDS011;50512;53.666;9.700;2022-07-23T13:53:54;5.70;;;2.28;;
64197;SDS011;50512;53.666;9.700;2022-07-23T13:56:20;2.10;;;1.20;;
64197;SDS011;50512;53.666;9.700;2022-07-23T13:58:47;5.80;;;1.45;;
64197;SDS011;50512;53.666;9.700;2022-07-23T14:01:12;1.98;;;1.33;;
64197;SDS011;50512;53.666;9.700;2022-07-23T14:03:38;3.15;;;1.23;;
64197;SDS011;50512;53.666;9.700;2022-07-23T14:06:04;5.40;;;1.58;;
64197;SDS011;50512;53.666;9.700;2022-07-23T14:08:29;5.80;;;1.45;;
64197;SDS011;50512;53.666;9.700;2022-07-23T14:10:55;6.55;;;1.42;;
64197;SDS011;50512;53.666;9.700;2022-07-23T14:13:20;4.68;;;1.60;;
64197;SDS011;50512;53.666;9.700;2022-07-23T14:15:47;3.22;;;1.40;;
64197;SDS011;50512;53.666;9.700;2022-07-23T14:18:13;2.05;;;1.40;;
64197;SDS011;50512;53.666;9.700;2022-07-23T14:20:38;4.13;;;2.00;;
64197;SDS011;50512;53.666;9.700;2022-07-23T14:23:04;4.22;;;1.60;;
64197;SDS011;50512;53.666;9.700;2022-07-23T14:25:29;5.35;;;1.67;;
64197;SDS011;50512;53.666;9.700;2022-07-23T14:27:54;4.78;;;1.40;;
64197;SDS011;50512;53.666;9.700;2022-07-23T14:30:20;2.63;;;1.40;;
64197;SDS011;50512;53.666;9.700;2022-07-23T14:32:47;4.95;;;1.40;;
64197;SDS011;50512;53.666;9.700;2022-07-23T14:35:12;4.60;;;1.50;;
64197;SDS011;50512;53.666;9.700;2022-07-23T14:37:38;7.50;;;1.65;;
64197;SDS011;50512;53.666;9.700;2022-07-23T14:40:04;5.78;;;1.50;;
64197;SDS011;50512;53.666;9.700;2022-07-23T14:42:30;7.57;;;1.98;;
64197;SDS011;50512;53.666;9.700;2022-07-23T14:44:56;3.35;;;1.52;;
64197;SDS011;50512;53.666;9.700;2022-07-23T14:47:21;8.45;;;1.88;;
64197;SDS011;50512;53.666;9.700;2022-07-23T14:49:48;2.90;;;1.60;;
64197;SDS011;50512;53.666;9.700;2022-07-23T14:52:14;5.88;;;1.70;;
64197;SDS011;50512;53.666;9.700;2022-07-23T14:54:39;6.30;;;1.80;;
64197;SDS011;50512;53.666;9.700;2022-07-23T14:57:04;8.02;;;1.77;;
64197;SDS011;50512;53.666;9.700;2022-07-23T14:59:30;4.03;;;1.90;;
64197;SDS011;50512;53.666;9.700;2022-07-23T15:01:55;5.18;;;1.65;;
64197;SDS011;50512;53.666;9.700;2022-07-23T15:04:21;7.05;;;2.03;;